sensor_id;sensor_type;location;lat;lon;timestamp;temperature;humidity
13113;DHT22;6622;49.752;6.100;2022-07-03T00:02:11;15.40;99.90
13113;DHT22;6622;49.752;6.100;2022-07-03T00:04:37;15.40;99.90
13113;DHT22;6622;49.752;6.100;2022-07-03T00:07:05;15.10;99.90
13113;DHT22;6622;49.752;6.100;2022-07-03T00:09:31;15.10;99.90
13113;DHT22;6622;49.752;6.100;2022-07-03T00:11:58;15.10;99.90
13113;DHT22;6622;49.752;6.100;2022-07-03T00:14:25;15.10;99.90
13113;DHT22;6622;49.752;6.100;2022-07-03T00:16:51;15.20;99.90
13113;DHT22;6622;49.752;6.100;2022-07-03T00:19:18;15.20;99.90
13113;DHT22;6622;49.752;6.100;2022-07-03T00:21:45;15.30;99.90
13113;DHT22;6622;49.752;6.100;2022-07-03T00:24:28;15.30;99.90
13113;DHT22;6622;49.752;6.100;2022-07-03T00:26:50;15.20;99.90
13113;DHT22;6622;49.752;6.100;2022-07-03T00:29:16;15.20;99.90
13113;DHT22;6622;49.752;6.100;2022-07-03T00:31:43;15.20;99.90
13113;DHT22;6622;49.752;6.100;2022-07-03T00:34:10;15.20;99.90
13113;DHT22;6622;49.752;6.100;2022-07-03T00:36:37;15.10;99.90
13113;DHT22;6622;49.752;6.100;2022-07-03T00:39:04;15.10;99.90
13113;DHT22;6622;49.752;6.100;2022-07-03T00:41:31;15.00;99.90
13113;DHT22;6622;49.752;6.100;2022-07-03T00:43:57;14.90;99.90
13113;DHT22;6622;49.752;6.100;2022-07-03T00:46:25;14.80;99.90
13113;DHT22;6622;49.752;6.100;2022-07-03T00:48:52;14.70;99.90
13113;DHT22;6622;49.752;6.100;2022-07-03T00:51:22;14.70;99.90
13113;DHT22;6622;49.752;6.100;2022-07-03T00:53:48;14.80;99.90
13113;DHT22;6622;49.752;6.100;2022-07-03T00:56:14;14.90;99.90
13113;DHT22;6622;49.752;6.100;2022-07-03T00:58:40;14.90;99.90
13113;DHT22;6622;49.752;6.100;2022-07-03T01:01:07;14.80;99.90
13113;DHT22;6622;49.752;6.100;2022-07-03T01:03:34;14.70;99.90
13113;DHT22;6622;49.752;6.100;2022-07-03T01:06:03;14.60;99.90
13113;DHT22;6622;49.752;6.100;2022-07-03T01:08:43;14.50;99.90
13113;DHT22;6622;49.752;6.100;2022-07-03T01:16:57;14.60;99.90
13113;DHT22;6622;49.752;6.100;2022-07-03T01:19:39;14.60;99.90
13113;DHT22;6622;49.752;6.100;2022-07-03T01:30:09;14.60;99.90
13113;DHT22;6622;49.752;6.100;2022-07-03T01:32:38;14.50;99.90
13113;DHT22;6622;49.752;6.100;2022-07-03T01:35:05;14.40;99.90
13113;DHT22;6622;49.752;6.100;2022-07-03T01:37:31;14.30;99.90
13113;DHT22;6622;49.752;6.100;2022-07-03T01:39:58;14.30;99.90
13113;DHT22;6622;49.752;6.100;2022-07-03T01:42:24;14.30;99.90
13113;DHT22;6622;49.752;6.100;2022-07-03T01:44:51;14.30;99.90
13113;DHT22;6622;49.752;6.100;2022-07-03T01:47:18;14.20;99.90
13113;DHT22;6622;49.752;6.100;2022-07-03T01:49:44;14.10;99.90
13113;DHT22;6622;49.752;6.100;2022-07-03T01:52:11;14.10;99.90
13113;DHT22;6622;49.752;6.100;2022-07-03T01:54:38;14.10;99.90
13113;DHT22;6622;49.752;6.100;2022-07-03T01:57:05;14.00;99.90
13113;DHT22;6622;49.752;6.100;2022-07-03T01:59:31;14.00;99.90
13113;DHT22;6622;49.752;6.100;2022-07-03T02:02:09;14.00;99.90
13113;DHT22;6622;49.752;6.100;2022-07-03T02:04:37;14.10;99.90
13113;DHT22;6622;49.752;6.100;2022-07-03T02:07:05;14.10;99.90
13113;DHT22;6622;49.752;6.100;2022-07-03T02:09:33;14.10;99.90
13113;DHT22;6622;49.752;6.100;2022-07-03T02:11:55;14.10;99.90
13113;DHT22;6622;49.752;6.100;2022-07-03T02:14:30;14.00;99.90
13113;DHT22;6622;49.752;6.100;2022-07-03T02:17:17;14.00;99.90
13113;DHT22;6622;49.752;6.100;2022-07-03T02:19:48;13.80;99.90
13113;DHT22;6622;49.752;6.100;2022-07-03T02:22:11;13.80;99.90
13113;DHT22;6622;49.752;6.100;2022-07-03T02:24:41;13.80;99.90
13113;DHT22;6622;49.752;6.100;2022-07-03T02:27:04;13.70;99.90
13113;DHT22;6622;49.752;6.100;2022-07-03T02:29:36;13.70;99.90
13113;DHT22;6622;49.752;6.100;2022-07-03T02:32:02;13.70;99.90
13113;DHT22;6622;49.752;6.100;2022-07-03T02:34:27;13.70;99.90
13113;DHT22;6622;49.752;6.100;2022-07-03T02:36:56;13.60;99.90
13113;DHT22;6622;49.752;6.100;2022-07-03T02:40:07;13.60;99.90
13113;DHT22;6622;49.752;6.100;2022-07-03T02:41:58;13.60;99.90
13113;DHT22;6622;49.752;6.100;2022-07-03T02:44:31;13.70;99.90
13113;DHT22;6622;49.752;6.100;2022-07-03T02:47:14;13.60;99.90
13113;DHT22;6622;49.752;6.100;2022-07-03T02:49:53;13.70;99.90
13113;DHT22;6622;49.752;6.100;2022-07-03T02:52:33;13.70;99.90
13113;DHT22;6622;49.752;6.100;2022-07-03T02:55:02;13.60;99.90
13113;DHT22;6622;49.752;6.100;2022-07-03T02:57:25;13.50;99.90
13113;DHT22;6622;49.752;6.100;2022-07-03T02:59:56;13.60;99.90
13113;DHT22;6622;49.752;6.100;2022-07-03T03:04:57;13.50;99.90
13113;DHT22;6622;49.752;6.100;2022-07-03T03:07:19;13.60;99.90
13113;DHT22;6622;49.752;6.100;2022-07-03T03:09:47;13.40;99.90
13113;DHT22;6622;49.752;6.100;2022-07-03T03:12:12;13.40;99.90
13113;DHT22;6622;49.752;6.100;2022-07-03T03:14:42;13.40;99.90
13113;DHT22;6622;49.752;6.100;2022-07-03T03:17:18;13.40;99.90
13113;DHT22;6622;49.752;6.100;2022-07-03T03:19:40;13.40;99.90
13113;DHT22;6622;49.752;6.100;2022-07-03T03:22:10;13.40;99.90
13113;DHT22;6622;49.752;6.100;2022-07-03T03:24:34;13.30;99.90
13113;DHT22;6622;49.752;6.100;2022-07-03T03:27:00;13.30;99.90
13113;DHT22;6622;49.752;6.100;2022-07-03T03:29:27;13.30;99.90
13113;DHT22;6622;49.752;6.100;2022-07-03T03:31:54;13.10;99.90
13113;DHT22;6622;49.752;6.100;2022-07-03T03:34:21;13.10;99.90
13113;DHT22;6622;49.752;6.100;2022-07-03T03:36:47;13.10;99.90
13113;DHT22;6622;49.752;6.100;2022-07-03T03:39:15;13.10;99.90
13113;DHT22;6622;49.752;6.100;2022-07-03T03:41:42;13.10;99.90
13113;DHT22;6622;49.752;6.100;2022-07-03T03:44:08;13.10;99.90
13113;DHT22;6622;49.752;6.100;2022-07-03T03:46:35;13.10;99.90
13113;DHT22;6622;49.752;6.100;2022-07-03T03:49:01;13.10;99.90
13113;DHT22;6622;49.752;6.100;2022-07-03T03:51:28;13.30;99.90
13113;DHT22;6622;49.752;6.100;2022-07-03T03:53:55;13.30;99.90
13113;DHT22;6622;49.752;6.100;2022-07-03T03:56:21;13.40;99.90
13113;DHT22;6622;49.752;6.100;2022-07-03T03:58:48;13.40;99.90
13113;DHT22;6622;49.752;6.100;2022-07-03T04:01:15;13.40;99.90
13113;DHT22;6622;49.752;6.100;2022-07-03T04:03:41;13.50;99.90
13113;DHT22;6622;49.752;6.100;2022-07-03T04:06:09;13.60;99.90
13113;DHT22;6622;49.752;6.100;2022-07-03T04:08:35;13.60;99.90
13113;DHT22;6622;49.752;6.100;2022-07-03T04:11:02;13.60;99.90
13113;DHT22;6622;49.752;6.100;2022-07-03T04:13:28;13.70;99.90
13113;DHT22;6622;49.752;6.100;2022-07-03T04:15:56;13.70;99.90
13113;DHT22;6622;49.752;6.100;2022-07-03T04:18:22;13.60;99.90
13113;DHT22;6622;49.752;6.100;2022-07-03T04:20:49;13.50;99.90
13113;DHT22;6622;49.752;6.100;2022-07-03T04:23:16;13.30;99.90
13113;DHT22;6622;49.752;6.100;2022-07-03T04:25:43;13.20;99.90
13113;DHT22;6622;49.752;6.100;2022-07-03T04:28:10;13.20;99.90
13113;DHT22;6622;49.752;6.100;2022-07-03T04:30:36;13.20;99.90
13113;DHT22;6622;49.752;6.100;2022-07-03T04:33:03;13.20;99.90
13113;DHT22;6622;49.752;6.100;2022-07-03T04:35:30;13.20;99.90
13113;DHT22;6622;49.752;6.100;2022-07-03T04:37:56;13.30;99.90
13113;DHT22;6622;49.752;6.100;2022-07-03T04:40:23;13.30;99.90
13113;DHT22;6622;49.752;6.100;2022-07-03T04:42:49;13.40;99.90
13113;DHT22;6622;49.752;6.100;2022-07-03T04:45:16;13.40;99.90
13113;DHT22;6622;49.752;6.100;2022-07-03T04:47:43;13.50;99.90
13113;DHT22;6622;49.752;6.100;2022-07-03T04:50:09;13.70;99.90
13113;DHT22;6622;49.752;6.100;2022-07-03T04:52:36;13.70;99.90
13113;DHT22;6622;49.752;6.100;2022-07-03T04:55:03;13.70;99.90
13113;DHT22;6622;49.752;6.100;2022-07-03T04:57:29;13.60;99.90
13113;DHT22;6622;49.752;6.100;2022-07-03T04:59:56;13.60;99.90
13113;DHT22;6622;49.752;6.100;2022-07-03T05:02:22;13.50;99.90
13113;DHT22;6622;49.752;6.100;2022-07-03T05:04:49;13.60;99.90
13113;DHT22;6622;49.752;6.100;2022-07-03T05:07:16;13.80;99.90
13113;DHT22;6622;49.752;6.100;2022-07-03T05:09:42;14.00;99.90
13113;DHT22;6622;49.752;6.100;2022-07-03T05:12:09;14.20;99.90
13113;DHT22;6622;49.752;6.100;2022-07-03T05:14:36;14.30;99.90
13113;DHT22;6622;49.752;6.100;2022-07-03T05:17:02;14.40;99.90
13113;DHT22;6622;49.752;6.100;2022-07-03T05:19:29;14.50;99.90
13113;DHT22;6622;49.752;6.100;2022-07-03T05:21:55;14.40;99.90
13113;DHT22;6622;49.752;6.100;2022-07-03T05:24:22;14.50;99.90
13113;DHT22;6622;49.752;6.100;2022-07-03T05:26:49;14.70;99.90
13113;DHT22;6622;49.752;6.100;2022-07-03T05:29:15;14.90;99.90
13113;DHT22;6622;49.752;6.100;2022-07-03T05:31:42;14.90;99.90
13113;DHT22;6622;49.752;6.100;2022-07-03T05:34:09;15.10;99.90
13113;DHT22;6622;49.752;6.100;2022-07-03T05:36:35;15.30;99.90
13113;DHT22;6622;49.752;6.100;2022-07-03T05:39:02;15.40;99.90
13113;DHT22;6622;49.752;6.100;2022-07-03T05:41:47;15.40;99.90
13113;DHT22;6622;49.752;6.100;2022-07-03T05:44:13;15.80;99.90
13113;DHT22;6622;49.752;6.100;2022-07-03T05:46:40;16.60;99.90
13113;DHT22;6622;49.752;6.100;2022-07-03T05:49:06;16.90;99.90
13113;DHT22;6622;49.752;6.100;2022-07-03T05:51:33;17.40;99.90
13113;DHT22;6622;49.752;6.100;2022-07-03T05:54:00;18.30;99.90
13113;DHT22;6622;49.752;6.100;2022-07-03T05:56:26;18.50;99.90
13113;DHT22;6622;49.752;6.100;2022-07-03T05:58:54;19.60;99.90
13113;DHT22;6622;49.752;6.100;2022-07-03T06:01:20;19.60;99.90
13113;DHT22;6622;49.752;6.100;2022-07-03T06:03:47;20.20;99.90
13113;DHT22;6622;49.752;6.100;2022-07-03T06:06:14;20.00;99.90
13113;DHT22;6622;49.752;6.100;2022-07-03T06:08:41;20.60;99.90
13113;DHT22;6622;49.752;6.100;2022-07-03T06:11:08;20.60;99.90
13113;DHT22;6622;49.752;6.100;2022-07-03T06:13:34;20.50;99.90
13113;DHT22;6622;49.752;6.100;2022-07-03T06:16:01;20.20;99.90
13113;DHT22;6622;49.752;6.100;2022-07-03T06:18:28;20.00;99.90
13113;DHT22;6622;49.752;6.100;2022-07-03T06:20:54;20.80;99.90
13113;DHT22;6622;49.752;6.100;2022-07-03T06:23:21;21.30;99.90
13113;DHT22;6622;49.752;6.100;2022-07-03T06:25:47;21.30;99.90
13113;DHT22;6622;49.752;6.100;2022-07-03T06:28:14;22.00;99.90
13113;DHT22;6622;49.752;6.100;2022-07-03T06:30:41;22.70;99.90
13113;DHT22;6622;49.752;6.100;2022-07-03T06:33:07;21.90;99.90
13113;DHT22;6622;49.752;6.100;2022-07-03T06:35:34;22.00;99.90
13113;DHT22;6622;49.752;6.100;2022-07-03T06:38:03;22.10;99.90
13113;DHT22;6622;49.752;6.100;2022-07-03T06:40:30;22.40;99.90
13113;DHT22;6622;49.752;6.100;2022-07-03T06:42:57;22.80;99.90
13113;DHT22;6622;49.752;6.100;2022-07-03T06:45:24;22.70;99.90
13113;DHT22;6622;49.752;6.100;2022-07-03T06:47:51;22.70;99.90
13113;DHT22;6622;49.752;6.100;2022-07-03T06:50:17;23.50;99.90
13113;DHT22;6622;49.752;6.100;2022-07-03T06:52:44;23.70;99.90
13113;DHT22;6622;49.752;6.100;2022-07-03T06:55:11;22.90;99.90
13113;DHT22;6622;49.752;6.100;2022-07-03T06:57:37;21.60;99.90
13113;DHT22;6622;49.752;6.100;2022-07-03T07:00:04;22.10;99.90
13113;DHT22;6622;49.752;6.100;2022-07-03T07:02:31;22.00;99.90
13113;DHT22;6622;49.752;6.100;2022-07-03T07:04:57;22.00;99.90
13113;DHT22;6622;49.752;6.100;2022-07-03T07:07:24;21.90;99.90
13113;DHT22;6622;49.752;6.100;2022-07-03T07:09:50;22.20;99.90
13113;DHT22;6622;49.752;6.100;2022-07-03T07:12:17;22.80;99.90
13113;DHT22;6622;49.752;6.100;2022-07-03T07:14:44;23.90;99.90
13113;DHT22;6622;49.752;6.100;2022-07-03T07:17:11;23.90;99.90
13113;DHT22;6622;49.752;6.100;2022-07-03T07:19:38;24.80;99.90
13113;DHT22;6622;49.752;6.100;2022-07-03T07:22:04;23.80;99.90
13113;DHT22;6622;49.752;6.100;2022-07-03T07:24:32;23.70;99.90
13113;DHT22;6622;49.752;6.100;2022-07-03T07:26:58;23.70;99.90
13113;DHT22;6622;49.752;6.100;2022-07-03T07:29:25;24.70;99.90
13113;DHT22;6622;49.752;6.100;2022-07-03T07:31:52;25.30;99.90
13113;DHT22;6622;49.752;6.100;2022-07-03T07:34:18;24.80;99.90
13113;DHT22;6622;49.752;6.100;2022-07-03T07:36:45;25.20;99.90
13113;DHT22;6622;49.752;6.100;2022-07-03T07:39:11;26.00;99.90
13113;DHT22;6622;49.752;6.100;2022-07-03T07:41:38;26.60;99.90
13113;DHT22;6622;49.752;6.100;2022-07-03T07:44:05;26.90;99.90
13113;DHT22;6622;49.752;6.100;2022-07-03T07:46:31;25.30;99.90
13113;DHT22;6622;49.752;6.100;2022-07-03T07:48:58;25.50;99.90
13113;DHT22;6622;49.752;6.100;2022-07-03T07:51:25;25.10;99.90
13113;DHT22;6622;49.752;6.100;2022-07-03T07:53:51;24.80;99.90
13113;DHT22;6622;49.752;6.100;2022-07-03T07:56:19;24.10;99.90
13113;DHT22;6622;49.752;6.100;2022-07-03T07:58:45;24.00;99.90
13113;DHT22;6622;49.752;6.100;2022-07-03T08:01:12;24.60;99.90
13113;DHT22;6622;49.752;6.100;2022-07-03T08:03:57;25.50;99.90
13113;DHT22;6622;49.752;6.100;2022-07-03T08:06:41;25.90;99.90
13113;DHT22;6622;49.752;6.100;2022-07-03T08:09:08;26.30;99.90
13113;DHT22;6622;49.752;6.100;2022-07-03T08:11:35;26.60;99.90
13113;DHT22;6622;49.752;6.100;2022-07-03T08:14:01;26.60;99.90
13113;DHT22;6622;49.752;6.100;2022-07-03T08:16:28;26.90;99.90
13113;DHT22;6622;49.752;6.100;2022-07-03T08:18:54;27.00;99.90
13113;DHT22;6622;49.752;6.100;2022-07-03T08:21:21;27.00;99.90
13113;DHT22;6622;49.752;6.100;2022-07-03T08:23:48;26.90;99.90
13113;DHT22;6622;49.752;6.100;2022-07-03T08:26:14;26.80;99.90
13113;DHT22;6622;49.752;6.100;2022-07-03T08:28:41;26.50;99.90
13113;DHT22;6622;49.752;6.100;2022-07-03T08:31:08;26.90;99.90
13113;DHT22;6622;49.752;6.100;2022-07-03T08:33:34;26.20;99.90
13113;DHT22;6622;49.752;6.100;2022-07-03T08:36:01;26.10;99.90
13113;DHT22;6622;49.752;6.100;2022-07-03T08:38:31;26.10;99.90
13113;DHT22;6622;49.752;6.100;2022-07-03T08:40:55;26.10;99.90
13113;DHT22;6622;49.752;6.100;2022-07-03T08:43:21;26.20;99.90
13113;DHT22;6622;49.752;6.100;2022-07-03T08:45:48;26.50;99.90
13113;DHT22;6622;49.752;6.100;2022-07-03T08:48:16;26.60;99.90
13113;DHT22;6622;49.752;6.100;2022-07-03T08:50:42;26.60;99.90
13113;DHT22;6622;49.752;6.100;2022-07-03T08:53:10;26.50;99.90
13113;DHT22;6622;49.752;6.100;2022-07-03T08:55:35;26.50;99.90
13113;DHT22;6622;49.752;6.100;2022-07-03T08:58:02;26.50;99.90
13113;DHT22;6622;49.752;6.100;2022-07-03T09:00:29;26.80;99.90
13113;DHT22;6622;49.752;6.100;2022-07-03T09:02:56;26.80;99.90
13113;DHT22;6622;49.752;6.100;2022-07-03T09:05:23;26.90;99.90
13113;DHT22;6622;49.752;6.100;2022-07-03T09:07:50;27.60;99.90
13113;DHT22;6622;49.752;6.100;2022-07-03T09:10:17;27.60;99.90
13113;DHT22;6622;49.752;6.100;2022-07-03T09:12:47;27.60;99.90
13113;DHT22;6622;49.752;6.100;2022-07-03T09:15:10;27.70;99.90
13113;DHT22;6622;49.752;6.100;2022-07-03T09:17:37;27.90;99.90
13113;DHT22;6622;49.752;6.100;2022-07-03T09:20:04;27.80;99.90
13113;DHT22;6622;49.752;6.100;2022-07-03T09:22:31;28.10;99.90
13113;DHT22;6622;49.752;6.100;2022-07-03T09:25:12;28.20;99.90
13113;DHT22;6622;49.752;6.100;2022-07-03T09:27:48;27.90;99.90
13113;DHT22;6622;49.752;6.100;2022-07-03T09:30:09;27.80;99.90
13113;DHT22;6622;49.752;6.100;2022-07-03T09:35:24;27.90;99.90
13113;DHT22;6622;49.752;6.100;2022-07-03T09:37:57;28.10;99.90
13113;DHT22;6622;49.752;6.100;2022-07-03T09:40:23;28.10;99.90
13113;DHT22;6622;49.752;6.100;2022-07-03T09:42:59;28.20;99.90
13113;DHT22;6622;49.752;6.100;2022-07-03T09:45:25;28.30;99.90
13113;DHT22;6622;49.752;6.100;2022-07-03T09:47:52;28.10;99.90
13113;DHT22;6622;49.752;6.100;2022-07-03T09:50:18;28.10;99.90
13113;DHT22;6622;49.752;6.100;2022-07-03T09:52:46;28.40;99.90
13113;DHT22;6622;49.752;6.100;2022-07-03T09:57:42;27.80;99.90
13113;DHT22;6622;49.752;6.100;2022-07-03T10:03:00;28.00;99.90
13113;DHT22;6622;49.752;6.100;2022-07-03T10:05:38;28.20;99.90
13113;DHT22;6622;49.752;6.100;2022-07-03T10:08:10;27.90;99.90
13113;DHT22;6622;49.752;6.100;2022-07-03T10:10:36;27.90;99.90
13113;DHT22;6622;49.752;6.100;2022-07-03T10:13:01;28.30;99.90
13113;DHT22;6622;49.752;6.100;2022-07-03T10:15:28;28.70;99.90
13113;DHT22;6622;49.752;6.100;2022-07-03T10:17:56;28.20;99.90
13113;DHT22;6622;49.752;6.100;2022-07-03T10:20:30;27.00;99.90
13113;DHT22;6622;49.752;6.100;2022-07-03T10:22:56;26.80;99.90
13113;DHT22;6622;49.752;6.100;2022-07-03T10:25:24;26.30;99.90
13113;DHT22;6622;49.752;6.100;2022-07-03T10:27:50;26.30;99.90
13113;DHT22;6622;49.752;6.100;2022-07-03T10:30:18;27.10;99.90
13113;DHT22;6622;49.752;6.100;2022-07-03T10:32:44;27.80;99.90
13113;DHT22;6622;49.752;6.100;2022-07-03T10:35:14;28.20;99.90
13113;DHT22;6622;49.752;6.100;2022-07-03T10:37:57;28.20;99.90
13113;DHT22;6622;49.752;6.100;2022-07-03T10:40:27;27.40;99.90
13113;DHT22;6622;49.752;6.100;2022-07-03T10:43:09;27.40;99.90
13113;DHT22;6622;49.752;6.100;2022-07-03T10:46:09;26.10;99.90
13113;DHT22;6622;49.752;6.100;2022-07-03T10:51:27;25.80;99.90
13113;DHT22;6622;49.752;6.100;2022-07-03T10:54:12;25.90;99.90
13113;DHT22;6622;49.752;6.100;2022-07-03T11:02:31;27.70;99.90
13113;DHT22;6622;49.752;6.100;2022-07-03T11:07:30;28.30;99.90
13113;DHT22;6622;49.752;6.100;2022-07-03T11:23:29;28.90;99.90
13113;DHT22;6622;49.752;6.100;2022-07-03T11:26:18;29.10;99.90
13113;DHT22;6622;49.752;6.100;2022-07-03T11:34:07;29.30;99.90
13113;DHT22;6622;49.752;6.100;2022-07-03T11:38:53;28.80;99.90
13113;DHT22;6622;49.752;6.100;2022-07-03T11:41:16;29.00;99.90
13113;DHT22;6622;49.752;6.100;2022-07-03T11:43:51;29.00;99.90
13113;DHT22;6622;49.752;6.100;2022-07-03T11:46:21;29.10;99.90
13113;DHT22;6622;49.752;6.100;2022-07-03T11:48:47;28.50;99.90
13113;DHT22;6622;49.752;6.100;2022-07-03T11:51:14;27.90;99.90
13113;DHT22;6622;49.752;6.100;2022-07-03T11:53:40;27.50;99.90
13113;DHT22;6622;49.752;6.100;2022-07-03T11:56:07;27.50;99.90
13113;DHT22;6622;49.752;6.100;2022-07-03T11:58:50;28.10;99.90
13113;DHT22;6622;49.752;6.100;2022-07-03T12:04:11;28.40;99.90
13113;DHT22;6622;49.752;6.100;2022-07-03T12:06:38;28.30;99.90
13113;DHT22;6622;49.752;6.100;2022-07-03T12:09:26;28.50;99.90
13113;DHT22;6622;49.752;6.100;2022-07-03T12:11:30;28.60;99.90
13113;DHT22;6622;49.752;6.100;2022-07-03T12:13:57;28.90;99.90
13113;DHT22;6622;49.752;6.100;2022-07-03T12:16:31;29.00;99.90
13113;DHT22;6622;49.752;6.100;2022-07-03T12:18:52;29.00;99.90
13113;DHT22;6622;49.752;6.100;2022-07-03T12:21:21;28.80;99.90
13113;DHT22;6622;49.752;6.100;2022-07-03T12:23:51;28.30;99.90
13113;DHT22;6622;49.752;6.100;2022-07-03T12:26:32;28.20;99.90
13113;DHT22;6622;49.752;6.100;2022-07-03T12:28:59;28.60;99.90
13113;DHT22;6622;49.752;6.100;2022-07-03T12:31:25;28.60;99.90
13113;DHT22;6622;49.752;6.100;2022-07-03T12:33:52;28.70;99.90
13113;DHT22;6622;49.752;6.100;2022-07-03T12:36:18;28.80;99.90
13113;DHT22;6622;49.752;6.100;2022-07-03T12:38:55;28.90;99.90
13113;DHT22;6622;49.752;6.100;2022-07-03T12:41:22;28.90;99.90
13113;DHT22;6622;49.752;6.100;2022-07-03T12:43:49;28.90;99.90
13113;DHT22;6622;49.752;6.100;2022-07-03T12:46:22;29.00;99.90
13113;DHT22;6622;49.752;6.100;2022-07-03T12:48:51;29.00;99.90
13113;DHT22;6622;49.752;6.100;2022-07-03T12:51:30;29.00;99.90
13113;DHT22;6622;49.752;6.100;2022-07-03T12:53:43;28.80;99.90
13113;DHT22;6622;49.752;6.100;2022-07-03T12:56:10;28.50;99.90
13113;DHT22;6622;49.752;6.100;2022-07-03T12:58:39;28.90;99.90
13113;DHT22;6622;49.752;6.100;2022-07-03T13:01:28;28.80;99.90
13113;DHT22;6622;49.752;6.100;2022-07-03T13:03:54;28.90;99.90
13113;DHT22;6622;49.752;6.100;2022-07-03T13:06:21;28.90;99.90
13113;DHT22;6622;49.752;6.100;2022-07-03T13:08:54;28.50;99.90
13113;DHT22;6622;49.752;6.100;2022-07-03T13:11:26;28.20;99.90
13113;DHT22;6622;49.752;6.100;2022-07-03T13:13:52;28.00;99.90
13113;DHT22;6622;49.752;6.100;2022-07-03T13:16:27;28.30;99.90
13113;DHT22;6622;49.752;6.100;2022-07-03T13:18:57;28.30;99.90
13113;DHT22;6622;49.752;6.100;2022-07-03T13:21:23;28.50;99.90
13113;DHT22;6622;49.752;6.100;2022-07-03T13:23:50;28.70;99.90
13113;DHT22;6622;49.752;6.100;2022-07-03T13:26:16;28.80;99.90
13113;DHT22;6622;49.752;6.100;2022-07-03T13:28:43;28.70;99.90
13113;DHT22;6622;49.752;6.100;2022-07-03T13:31:10;28.70;99.90
13113;DHT22;6622;49.752;6.100;2022-07-03T13:33:36;28.70;99.90
13113;DHT22;6622;49.752;6.100;2022-07-03T13:36:03;28.70;99.90
13113;DHT22;6622;49.752;6.100;2022-07-03T13:38:30;28.70;99.90
13113;DHT22;6622;49.752;6.100;2022-07-03T13:40:56;28.60;99.90
13113;DHT22;6622;49.752;6.100;2022-07-03T13:43:23;28.50;99.90
13113;DHT22;6622;49.752;6.100;2022-07-03T13:45:50;28.50;99.90
13113;DHT22;6622;49.752;6.100;2022-07-03T13:48:16;28.50;99.90
13113;DHT22;6622;49.752;6.100;2022-07-03T13:50:43;28.60;99.90
13113;DHT22;6622;49.752;6.100;2022-07-03T13:53:09;28.60;99.90
13113;DHT22;6622;49.752;6.100;2022-07-03T13:55:36;28.70;99.90
13113;DHT22;6622;49.752;6.100;2022-07-03T13:58:03;28.70;99.90
13113;DHT22;6622;49.752;6.100;2022-07-03T14:00:30;28.70;99.90
13113;DHT22;6622;49.752;6.100;2022-07-03T14:02:57;28.70;99.90
13113;DHT22;6622;49.752;6.100;2022-07-03T14:05:23;28.30;99.90
13113;DHT22;6622;49.752;6.100;2022-07-03T14:07:51;28.50;99.90
13113;DHT22;6622;49.752;6.100;2022-07-03T14:10:17;28.50;99.90
13113;DHT22;6622;49.752;6.100;2022-07-03T14:12:44;28.60;99.90
13113;DHT22;6622;49.752;6.100;2022-07-03T14:15:11;28.20;99.90
13113;DHT22;6622;49.752;6.100;2022-07-03T14:17:38;28.20;99.90
13113;DHT22;6622;49.752;6.100;2022-07-03T14:20:05;28.10;99.90
13113;DHT22;6622;49.752;6.100;2022-07-03T14:22:31;28.00;99.90
13113;DHT22;6622;49.752;6.100;2022-07-03T14:24:58;28.10;99.90
13113;DHT22;6622;49.752;6.100;2022-07-03T14:27:25;28.00;99.90
13113;DHT22;6622;49.752;6.100;2022-07-03T14:30:10;28.00;99.90
13113;DHT22;6622;49.752;6.100;2022-07-03T14:32:47;28.00;99.90
13113;DHT22;6622;49.752;6.100;2022-07-03T14:35:14;28.10;99.90
13113;DHT22;6622;49.752;6.100;2022-07-03T14:37:41;28.30;99.90
13113;DHT22;6622;49.752;6.100;2022-07-03T14:40:08;28.30;99.90
13113;DHT22;6622;49.752;6.100;2022-07-03T14:42:35;28.10;99.90
13113;DHT22;6622;49.752;6.100;2022-07-03T14:45:01;28.20;99.90
13113;DHT22;6622;49.752;6.100;2022-07-03T14:47:28;28.20;99.90
13113;DHT22;6622;49.752;6.100;2022-07-03T14:49:55;28.10;99.90
13113;DHT22;6622;49.752;6.100;2022-07-03T14:52:21;28.00;99.90
13113;DHT22;6622;49.752;6.100;2022-07-03T14:54:48;27.90;99.90
13113;DHT22;6622;49.752;6.100;2022-07-03T14:57:24;27.90;99.90
13113;DHT22;6622;49.752;6.100;2022-07-03T14:59:58;28.10;99.90
13113;DHT22;6622;49.752;6.100;2022-07-03T15:02:20;28.10;99.90
13113;DHT22;6622;49.752;6.100;2022-07-03T15:05:05;27.80;99.90
13113;DHT22;6622;49.752;6.100;2022-07-03T15:07:28;27.40;99.90
13113;DHT22;6622;49.752;6.100;2022-07-03T15:10:04;27.40;99.90
13113;DHT22;6622;49.752;6.100;2022-07-03T15:12:28;27.60;99.90
13113;DHT22;6622;49.752;6.100;2022-07-03T15:14:55;27.80;99.90
13113;DHT22;6622;49.752;6.100;2022-07-03T15:17:22;27.80;99.90
13113;DHT22;6622;49.752;6.100;2022-07-03T15:19:49;28.00;99.90
13113;DHT22;6622;49.752;6.100;2022-07-03T15:22:15;27.90;99.90
13113;DHT22;6622;49.752;6.100;2022-07-03T15:24:42;27.70;99.90
13113;DHT22;6622;49.752;6.100;2022-07-03T15:27:09;27.70;99.90
13113;DHT22;6622;49.752;6.100;2022-07-03T15:29:36;27.60;99.90
13113;DHT22;6622;49.752;6.100;2022-07-03T15:32:03;27.50;99.90
13113;DHT22;6622;49.752;6.100;2022-07-03T15:34:30;27.50;99.90
13113;DHT22;6622;49.752;6.100;2022-07-03T15:40:03;27.50;99.90
13113;DHT22;6622;49.752;6.100;2022-07-03T15:45:11;27.70;99.90
13113;DHT22;6622;49.752;6.100;2022-07-03T15:51:05;27.60;99.90
13113;DHT22;6622;49.752;6.100;2022-07-03T15:53:28;27.50;99.90
13113;DHT22;6622;49.752;6.100;2022-07-03T15:55:56;27.40;99.90
13113;DHT22;6622;49.752;6.100;2022-07-03T15:58:22;27.40;99.90
13113;DHT22;6622;49.752;6.100;2022-07-03T16:00:47;27.20;99.90
13113;DHT22;6622;49.752;6.100;2022-07-03T16:03:32;27.00;99.90
13113;DHT22;6622;49.752;6.100;2022-07-03T16:05:55;27.00;99.90
13113;DHT22;6622;49.752;6.100;2022-07-03T16:08:23;26.70;99.90
13113;DHT22;6622;49.752;6.100;2022-07-03T16:10:49;26.70;99.90
13113;DHT22;6622;49.752;6.100;2022-07-03T16:13:16;26.70;99.90
13113;DHT22;6622;49.752;6.100;2022-07-03T16:15:43;26.60;99.90
13113;DHT22;6622;49.752;6.100;2022-07-03T16:18:10;26.80;99.90
13113;DHT22;6622;49.752;6.100;2022-07-03T16:20:36;26.80;99.90
13113;DHT22;6622;49.752;6.100;2022-07-03T16:23:04;26.50;99.90
13113;DHT22;6622;49.752;6.100;2022-07-03T16:25:33;26.50;99.90
13113;DHT22;6622;49.752;6.100;2022-07-03T16:28:03;26.40;99.90
13113;DHT22;6622;49.752;6.100;2022-07-03T16:30:29;26.20;99.90
13113;DHT22;6622;49.752;6.100;2022-07-03T16:32:55;26.30;99.90
13113;DHT22;6622;49.752;6.100;2022-07-03T16:38:04;26.20;99.90
13113;DHT22;6622;49.752;6.100;2022-07-03T16:40:31;26.00;99.90
13113;DHT22;6622;49.752;6.100;2022-07-03T16:42:58;26.00;99.90
13113;DHT22;6622;49.752;6.100;2022-07-03T16:45:26;25.90;99.90
13113;DHT22;6622;49.752;6.100;2022-07-03T16:47:51;25.90;99.90
13113;DHT22;6622;49.752;6.100;2022-07-03T16:50:18;25.90;99.90
13113;DHT22;6622;49.752;6.100;2022-07-03T16:52:46;25.70;99.90
13113;DHT22;6622;49.752;6.100;2022-07-03T16:55:12;25.70;99.90
13113;DHT22;6622;49.752;6.100;2022-07-03T16:57:45;25.70;99.90
13113;DHT22;6622;49.752;6.100;2022-07-03T17:00:15;25.60;99.90
13113;DHT22;6622;49.752;6.100;2022-07-03T17:02:40;25.40;99.90